sensor_id;sensor_type;location;lat;lon;timestamp;temperature;humidity
48535;DHT22;34323;52.022;5.686;2023-11-19T00:00:27;19.10;99.90
48535;DHT22;34323;52.022;5.686;2023-11-19T00:02:52;19.10;99.90
48535;DHT22;34323;52.022;5.686;2023-11-19T00:05:18;19.20;99.90
48535;DHT22;34323;52.022;5.686;2023-11-19T00:07:44;19.10;99.90
48535;DHT22;34323;52.022;5.686;2023-11-19T00:10:14;19.20;99.90
48535;DHT22;34323;52.022;5.686;2023-11-19T00:12:44;19.10;99.90
48535;DHT22;34323;52.022;5.686;2023-11-19T00:15:11;19.10;99.90
48535;DHT22;34323;52.022;5.686;2023-11-19T00:17:38;19.10;99.90
48535;DHT22;34323;52.022;5.686;2023-11-19T00:20:06;19.10;99.90
48535;DHT22;34323;52.022;5.686;2023-11-19T00:22:32;19.20;99.90
48535;DHT22;34323;52.022;5.686;2023-11-19T00:24:58;19.20;99.90
48535;DHT22;34323;52.022;5.686;2023-11-19T00:27:25;19.10;99.90
48535;DHT22;34323;52.022;5.686;2023-11-19T00:29:50;19.20;99.90
48535;DHT22;34323;52.022;5.686;2023-11-19T00:32:16;19.10;99.90
48535;DHT22;34323;52.022;5.686;2023-11-19T00:34:44;19.10;99.90
48535;DHT22;34323;52.022;5.686;2023-11-19T00:37:10;19.20;99.90
48535;DHT22;34323;52.022;5.686;2023-11-19T00:39:36;19.30;99.90
48535;DHT22;34323;52.022;5.686;2023-11-19T00:42:01;19.40;99.90
48535;DHT22;34323;52.022;5.686;2023-11-19T00:44:27;19.40;99.90
48535;DHT22;34323;52.022;5.686;2023-11-19T00:46:53;19.40;99.90
48535;DHT22;34323;52.022;5.686;2023-11-19T00:49:18;19.40;99.90
48535;DHT22;34323;52.022;5.686;2023-11-19T00:51:44;19.30;99.90
48535;DHT22;34323;52.022;5.686;2023-11-19T00:54:11;19.40;99.90
48535;DHT22;34323;52.022;5.686;2023-11-19T00:56:36;19.50;99.90
48535;DHT22;34323;52.022;5.686;2023-11-19T00:59:02;19.50;99.90
48535;DHT22;34323;52.022;5.686;2023-11-19T01:01:29;19.30;99.90
48535;DHT22;34323;52.022;5.686;2023-11-19T01:03:55;19.40;99.90
48535;DHT22;34323;52.022;5.686;2023-11-19T01:06:29;19.40;99.90
48535;DHT22;34323;52.022;5.686;2023-11-19T01:08:55;19.50;99.90
48535;DHT22;34323;52.022;5.686;2023-11-19T01:11:25;19.60;99.90
48535;DHT22;34323;52.022;5.686;2023-11-19T01:13:51;19.50;99.90
48535;DHT22;34323;52.022;5.686;2023-11-19T01:16:17;19.60;99.90
48535;DHT22;34323;52.022;5.686;2023-11-19T01:18:44;19.70;99.90
48535;DHT22;34323;52.022;5.686;2023-11-19T01:21:10;19.60;99.90
48535;DHT22;34323;52.022;5.686;2023-11-19T01:23:35;19.70;99.90
48535;DHT22;34323;52.022;5.686;2023-11-19T01:26:02;19.50;99.90
48535;DHT22;34323;52.022;5.686;2023-11-19T01:28:28;19.60;99.90
48535;DHT22;34323;52.022;5.686;2023-11-19T01:30:53;19.60;99.90
48535;DHT22;34323;52.022;5.686;2023-11-19T01:33:19;19.50;99.90
48535;DHT22;34323;52.022;5.686;2023-11-19T01:35:45;19.40;99.90
48535;DHT22;34323;52.022;5.686;2023-11-19T01:38:10;19.60;99.90
48535;DHT22;34323;52.022;5.686;2023-11-19T01:40:36;19.40;99.90
48535;DHT22;34323;52.022;5.686;2023-11-19T01:43:03;19.40;99.90
48535;DHT22;34323;52.022;5.686;2023-11-19T01:45:30;19.30;99.90
48535;DHT22;34323;52.022;5.686;2023-11-19T01:47:57;19.20;99.90
48535;DHT22;34323;52.022;5.686;2023-11-19T01:50:24;19.20;99.90
48535;DHT22;34323;52.022;5.686;2023-11-19T01:52:52;19.20;99.90
48535;DHT22;34323;52.022;5.686;2023-11-19T01:55:20;19.30;99.90
48535;DHT22;34323;52.022;5.686;2023-11-19T01:57:48;19.30;99.90
48535;DHT22;34323;52.022;5.686;2023-11-19T02:00:15;19.30;99.90
48535;DHT22;34323;52.022;5.686;2023-11-19T02:02:42;19.20;99.90
48535;DHT22;34323;52.022;5.686;2023-11-19T02:05:10;19.20;99.90
48535;DHT22;34323;52.022;5.686;2023-11-19T02:07:36;19.40;99.90
48535;DHT22;34323;52.022;5.686;2023-11-19T02:10:02;19.40;99.90
48535;DHT22;34323;52.022;5.686;2023-11-19T02:12:28;19.40;99.90
48535;DHT22;34323;52.022;5.686;2023-11-19T02:14:54;19.30;99.90
48535;DHT22;34323;52.022;5.686;2023-11-19T02:17:30;19.20;99.90
48535;DHT22;34323;52.022;5.686;2023-11-19T02:20:03;19.10;99.90
48535;DHT22;34323;52.022;5.686;2023-11-19T02:22:32;19.00;99.90
48535;DHT22;34323;52.022;5.686;2023-11-19T02:25:04;18.90;99.90
48535;DHT22;34323;52.022;5.686;2023-11-19T02:27:42;18.90;99.90
48535;DHT22;34323;52.022;5.686;2023-11-19T02:30:08;18.90;99.90
48535;DHT22;34323;52.022;5.686;2023-11-19T02:32:34;18.90;99.90
48535;DHT22;34323;52.022;5.686;2023-11-19T02:35:01;18.70;99.90
48535;DHT22;34323;52.022;5.686;2023-11-19T02:37:27;18.90;99.90
48535;DHT22;34323;52.022;5.686;2023-11-19T02:39:53;19.00;99.90
48535;DHT22;34323;52.022;5.686;2023-11-19T02:42:19;19.10;99.90
48535;DHT22;34323;52.022;5.686;2023-11-19T02:44:45;19.10;99.90
48535;DHT22;34323;52.022;5.686;2023-11-19T02:47:11;19.00;99.90
48535;DHT22;34323;52.022;5.686;2023-11-19T02:49:37;18.90;99.90
48535;DHT22;34323;52.022;5.686;2023-11-19T02:52:03;19.00;99.90
48535;DHT22;34323;52.022;5.686;2023-11-19T02:54:31;18.90;99.90
48535;DHT22;34323;52.022;5.686;2023-11-19T02:57:00;18.70;99.90
48535;DHT22;34323;52.022;5.686;2023-11-19T02:59:27;18.50;99.90
48535;DHT22;34323;52.022;5.686;2023-11-19T03:01:54;18.70;99.90
48535;DHT22;34323;52.022;5.686;2023-11-19T03:04:20;18.90;99.90
48535;DHT22;34323;52.022;5.686;2023-11-19T03:06:46;18.80;99.90
48535;DHT22;34323;52.022;5.686;2023-11-19T03:09:12;18.70;99.90
48535;DHT22;34323;52.022;5.686;2023-11-19T03:11:38;18.80;99.90
48535;DHT22;34323;52.022;5.686;2023-11-19T03:14:03;18.90;99.90
48535;DHT22;34323;52.022;5.686;2023-11-19T03:16:30;18.80;99.90
48535;DHT22;34323;52.022;5.686;2023-11-19T03:18:56;18.70;99.90
48535;DHT22;34323;52.022;5.686;2023-11-19T03:21:31;18.70;99.90
48535;DHT22;34323;52.022;5.686;2023-11-19T03:23:57;18.60;99.90
48535;DHT22;34323;52.022;5.686;2023-11-19T03:26:28;18.50;99.90
48535;DHT22;34323;52.022;5.686;2023-11-19T03:28:54;18.60;99.90
48535;DHT22;34323;52.022;5.686;2023-11-19T03:31:19;18.60;99.90
48535;DHT22;34323;52.022;5.686;2023-11-19T03:33:45;18.60;99.90
48535;DHT22;34323;52.022;5.686;2023-11-19T03:36:12;18.60;99.90
48535;DHT22;34323;52.022;5.686;2023-11-19T03:38:38;18.50;99.90
48535;DHT22;34323;52.022;5.686;2023-11-19T03:41:14;18.50;99.90
48535;DHT22;34323;52.022;5.686;2023-11-19T03:43:40;18.50;99.90
48535;DHT22;34323;52.022;5.686;2023-11-19T03:46:18;18.70;99.90
48535;DHT22;34323;52.022;5.686;2023-11-19T03:48:46;18.80;99.90
48535;DHT22;34323;52.022;5.686;2023-11-19T03:51:12;18.80;99.90
48535;DHT22;34323;52.022;5.686;2023-11-19T03:53:47;18.70;99.90
48535;DHT22;34323;52.022;5.686;2023-11-19T03:56:12;18.80;99.90
48535;DHT22;34323;52.022;5.686;2023-11-19T03:58:38;18.90;99.90
48535;DHT22;34323;52.022;5.686;2023-11-19T04:01:11;18.90;99.90
48535;DHT22;34323;52.022;5.686;2023-11-19T04:03:40;18.80;99.90
48535;DHT22;34323;52.022;5.686;2023-11-19T04:06:06;18.90;99.90
48535;DHT22;34323;52.022;5.686;2023-11-19T04:08:31;18.90;99.90
48535;DHT22;34323;52.022;5.686;2023-11-19T04:10:57;18.80;99.90
48535;DHT22;34323;52.022;5.686;2023-11-19T04:13:23;18.70;99.90
48535;DHT22;34323;52.022;5.686;2023-11-19T04:15:50;18.60;99.90
48535;DHT22;34323;52.022;5.686;2023-11-19T04:18:16;18.50;99.90
48535;DHT22;34323;52.022;5.686;2023-11-19T04:20:42;18.50;99.90
48535;DHT22;34323;52.022;5.686;2023-11-19T04:23:08;18.40;99.90
48535;DHT22;34323;52.022;5.686;2023-11-19T04:25:35;18.20;99.90
48535;DHT22;34323;52.022;5.686;2023-11-19T04:28:01;18.30;99.90
48535;DHT22;34323;52.022;5.686;2023-11-19T04:30:27;18.30;99.90
48535;DHT22;34323;52.022;5.686;2023-11-19T04:32:53;18.30;99.90
48535;DHT22;34323;52.022;5.686;2023-11-19T04:35:18;18.20;99.90
48535;DHT22;34323;52.022;5.686;2023-11-19T04:37:44;18.20;99.90
48535;DHT22;34323;52.022;5.686;2023-11-19T04:40:10;18.10;99.90
48535;DHT22;34323;52.022;5.686;2023-11-19T04:42:37;18.00;99.90
48535;DHT22;34323;52.022;5.686;2023-11-19T04:45:06;18.00;99.90
48535;DHT22;34323;52.022;5.686;2023-11-19T04:47:32;18.10;99.90
48535;DHT22;34323;52.022;5.686;2023-11-19T04:49:58;17.90;99.90
48535;DHT22;34323;52.022;5.686;2023-11-19T04:52:24;17.90;99.90
48535;DHT22;34323;52.022;5.686;2023-11-19T04:54:49;18.00;99.90
48535;DHT22;34323;52.022;5.686;2023-11-19T04:57:15;18.00;99.90
48535;DHT22;34323;52.022;5.686;2023-11-19T04:59:41;17.90;99.90
48535;DHT22;34323;52.022;5.686;2023-11-19T05:02:07;17.90;99.90
48535;DHT22;34323;52.022;5.686;2023-11-19T05:04:33;17.80;99.90
48535;DHT22;34323;52.022;5.686;2023-11-19T05:06:59;17.90;99.90
48535;DHT22;34323;52.022;5.686;2023-11-19T05:09:24;17.80;99.90
48535;DHT22;34323;52.022;5.686;2023-11-19T05:11:50;17.70;99.90
48535;DHT22;34323;52.022;5.686;2023-11-19T05:14:16;17.60;99.90
48535;DHT22;34323;52.022;5.686;2023-11-19T05:16:44;17.60;99.90
48535;DHT22;34323;52.022;5.686;2023-11-19T05:19:09;17.70;99.90
48535;DHT22;34323;52.022;5.686;2023-11-19T05:21:35;17.60;99.90
48535;DHT22;34323;52.022;5.686;2023-11-19T05:24:01;17.60;99.90
48535;DHT22;34323;52.022;5.686;2023-11-19T05:26:30;17.60;99.90
48535;DHT22;34323;52.022;5.686;2023-11-19T05:28:55;17.60;99.90
48535;DHT22;34323;52.022;5.686;2023-11-19T05:31:21;17.70;99.90
48535;DHT22;34323;52.022;5.686;2023-11-19T05:33:47;17.80;99.90
48535;DHT22;34323;52.022;5.686;2023-11-19T05:36:13;17.80;99.90
48535;DHT22;34323;52.022;5.686;2023-11-19T05:38:39;17.70;99.90
48535;DHT22;34323;52.022;5.686;2023-11-19T05:41:05;17.80;99.90
48535;DHT22;34323;52.022;5.686;2023-11-19T05:43:31;17.90;99.90
48535;DHT22;34323;52.022;5.686;2023-11-19T05:45:57;18.00;99.90
48535;DHT22;34323;52.022;5.686;2023-11-19T05:48:25;18.00;99.90
48535;DHT22;34323;52.022;5.686;2023-11-19T05:50:51;17.90;99.90
48535;DHT22;34323;52.022;5.686;2023-11-19T05:53:16;17.80;99.90
48535;DHT22;34323;52.022;5.686;2023-11-19T05:55:42;17.70;99.90
48535;DHT22;34323;52.022;5.686;2023-11-19T05:58:34;17.40;99.90
48535;DHT22;34323;52.022;5.686;2023-11-19T06:00:59;17.40;99.90
48535;DHT22;34323;52.022;5.686;2023-11-19T06:03:26;17.50;99.90
48535;DHT22;34323;52.022;5.686;2023-11-19T06:05:52;17.60;99.90
48535;DHT22;34323;52.022;5.686;2023-11-19T06:08:18;17.60;99.90
48535;DHT22;34323;52.022;5.686;2023-11-19T06:10:46;17.80;99.90
48535;DHT22;34323;52.022;5.686;2023-11-19T06:13:12;17.80;99.90
48535;DHT22;34323;52.022;5.686;2023-11-19T06:15:41;17.80;99.90
48535;DHT22;34323;52.022;5.686;2023-11-19T06:18:07;17.70;99.90
48535;DHT22;34323;52.022;5.686;2023-11-19T06:20:33;17.70;99.90
48535;DHT22;34323;52.022;5.686;2023-11-19T06:23:00;17.80;99.90
48535;DHT22;34323;52.022;5.686;2023-11-19T06:25:26;17.80;99.90
48535;DHT22;34323;52.022;5.686;2023-11-19T06:27:52;17.80;99.90
48535;DHT22;34323;52.022;5.686;2023-11-19T06:30:18;18.00;99.90
48535;DHT22;34323;52.022;5.686;2023-11-19T06:32:45;18.10;99.90
48535;DHT22;34323;52.022;5.686;2023-11-19T06:35:11;18.10;99.90
48535;DHT22;34323;52.022;5.686;2023-11-19T06:37:39;18.20;99.90
48535;DHT22;34323;52.022;5.686;2023-11-19T06:40:06;18.00;99.90
48535;DHT22;34323;52.022;5.686;2023-11-19T06:42:32;17.80;99.90
48535;DHT22;34323;52.022;5.686;2023-11-19T06:44:58;17.80;99.90
48535;DHT22;34323;52.022;5.686;2023-11-19T06:47:27;17.80;99.90
48535;DHT22;34323;52.022;5.686;2023-11-19T06:49:53;17.60;99.90
48535;DHT22;34323;52.022;5.686;2023-11-19T06:52:19;17.40;99.90
48535;DHT22;34323;52.022;5.686;2023-11-19T06:54:45;17.50;99.90
48535;DHT22;34323;52.022;5.686;2023-11-19T06:57:11;17.70;99.90
48535;DHT22;34323;52.022;5.686;2023-11-19T06:59:37;17.80;99.90
48535;DHT22;34323;52.022;5.686;2023-11-19T07:02:03;17.80;99.90
48535;DHT22;34323;52.022;5.686;2023-11-19T07:04:30;17.80;99.90
48535;DHT22;34323;52.022;5.686;2023-11-19T07:06:56;17.80;99.90
48535;DHT22;34323;52.022;5.686;2023-11-19T07:09:21;17.70;99.90
48535;DHT22;34323;52.022;5.686;2023-11-19T07:11:48;17.50;99.90
48535;DHT22;34323;52.022;5.686;2023-11-19T07:14:17;17.60;99.90
48535;DHT22;34323;52.022;5.686;2023-11-19T07:16:43;17.50;99.90
48535;DHT22;34323;52.022;5.686;2023-11-19T07:19:09;17.40;99.90
48535;DHT22;34323;52.022;5.686;2023-11-19T07:21:35;17.50;99.90
48535;DHT22;34323;52.022;5.686;2023-11-19T07:24:05;17.50;99.90
48535;DHT22;34323;52.022;5.686;2023-11-19T07:26:30;17.30;99.90
48535;DHT22;34323;52.022;5.686;2023-11-19T07:28:56;17.10;99.90
48535;DHT22;34323;52.022;5.686;2023-11-19T07:31:22;17.00;99.90
48535;DHT22;34323;52.022;5.686;2023-11-19T07:33:49;17.30;99.90
48535;DHT22;34323;52.022;5.686;2023-11-19T07:36:14;17.40;99.90
48535;DHT22;34323;52.022;5.686;2023-11-19T07:38:40;17.40;99.90
48535;DHT22;34323;52.022;5.686;2023-11-19T07:41:06;17.30;99.90
48535;DHT22;34323;52.022;5.686;2023-11-19T07:43:34;17.20;99.90
48535;DHT22;34323;52.022;5.686;2023-11-19T07:45:59;17.30;99.90
48535;DHT22;34323;52.022;5.686;2023-11-19T07:48:26;17.30;99.90
48535;DHT22;34323;52.022;5.686;2023-11-19T07:50:54;17.20;99.90
48535;DHT22;34323;52.022;5.686;2023-11-19T07:53:20;17.10;99.90
48535;DHT22;34323;52.022;5.686;2023-11-19T07:55:46;17.10;99.90
48535;DHT22;34323;52.022;5.686;2023-11-19T07:58:12;17.00;99.90
48535;DHT22;34323;52.022;5.686;2023-11-19T08:00:38;17.10;99.90
48535;DHT22;34323;52.022;5.686;2023-11-19T08:03:04;17.10;99.90
48535;DHT22;34323;52.022;5.686;2023-11-19T08:05:31;17.30;99.90
48535;DHT22;34323;52.022;5.686;2023-11-19T08:07:57;17.40;99.90
48535;DHT22;34323;52.022;5.686;2023-11-19T08:10:23;17.40;99.90
48535;DHT22;34323;52.022;5.686;2023-11-19T08:12:49;17.30;99.90
48535;DHT22;34323;52.022;5.686;2023-11-19T08:15:15;17.30;99.90
48535;DHT22;34323;52.022;5.686;2023-11-19T08:17:41;17.20;99.90
48535;DHT22;34323;52.022;5.686;2023-11-19T08:20:09;17.10;99.90
48535;DHT22;34323;52.022;5.686;2023-11-19T08:22:39;17.20;99.90
48535;DHT22;34323;52.022;5.686;2023-11-19T08:25:05;17.30;99.90
48535;DHT22;34323;52.022;5.686;2023-11-19T08:27:31;17.40;99.90
48535;DHT22;34323;52.022;5.686;2023-11-19T08:29:58;17.50;99.90
48535;DHT22;34323;52.022;5.686;2023-11-19T08:32:24;17.40;99.90
48535;DHT22;34323;52.022;5.686;2023-11-19T08:34:50;17.40;99.90
48535;DHT22;34323;52.022;5.686;2023-11-19T08:37:15;17.30;99.90
48535;DHT22;34323;52.022;5.686;2023-11-19T08:39:43;17.50;99.90
48535;DHT22;34323;52.022;5.686;2023-11-19T08:42:09;17.60;99.90
48535;DHT22;34323;52.022;5.686;2023-11-19T08:44:35;17.80;99.90
48535;DHT22;34323;52.022;5.686;2023-11-19T08:47:01;17.60;99.90
48535;DHT22;34323;52.022;5.686;2023-11-19T08:49:27;17.60;99.90
48535;DHT22;34323;52.022;5.686;2023-11-19T08:51:52;17.70;99.90
48535;DHT22;34323;52.022;5.686;2023-11-19T08:54:18;17.70;99.90
48535;DHT22;34323;52.022;5.686;2023-11-19T08:56:45;17.50;99.90
48535;DHT22;34323;52.022;5.686;2023-11-19T08:59:11;17.50;99.90
48535;DHT22;34323;52.022;5.686;2023-11-19T09:01:37;17.60;99.90
48535;DHT22;34323;52.022;5.686;2023-11-19T09:04:02;17.80;99.90
48535;DHT22;34323;52.022;5.686;2023-11-19T09:06:28;17.90;99.90
48535;DHT22;34323;52.022;5.686;2023-11-19T09:08:54;17.80;99.90
48535;DHT22;34323;52.022;5.686;2023-11-19T09:11:23;17.60;99.90
48535;DHT22;34323;52.022;5.686;2023-11-19T09:13:49;17.60;99.90
48535;DHT22;34323;52.022;5.686;2023-11-19T09:16:14;17.70;99.90
48535;DHT22;34323;52.022;5.686;2023-11-19T09:18:41;17.60;99.90
48535;DHT22;34323;52.022;5.686;2023-11-19T09:21:06;17.60;99.90
48535;DHT22;34323;52.022;5.686;2023-11-19T09:23:32;17.70;99.90
48535;DHT22;34323;52.022;5.686;2023-11-19T09:26:05;17.80;99.90
48535;DHT22;34323;52.022;5.686;2023-11-19T09:28:31;17.60;99.90
48535;DHT22;34323;52.022;5.686;2023-11-19T09:30:56;17.60;99.90
48535;DHT22;34323;52.022;5.686;2023-11-19T09:33:22;17.70;99.90
48535;DHT22;34323;52.022;5.686;2023-11-19T09:35:47;17.70;99.90
48535;DHT22;34323;52.022;5.686;2023-11-19T09:38:15;17.70;99.90
48535;DHT22;34323;52.022;5.686;2023-11-19T09:40:40;17.60;99.90
48535;DHT22;34323;52.022;5.686;2023-11-19T09:43:07;17.60;99.90
48535;DHT22;34323;52.022;5.686;2023-11-19T09:45:48;17.80;99.90
48535;DHT22;34323;52.022;5.686;2023-11-19T09:48:17;17.90;99.90
48535;DHT22;34323;52.022;5.686;2023-11-19T09:50:47;17.90;99.90
48535;DHT22;34323;52.022;5.686;2023-11-19T09:53:14;18.00;99.90
48535;DHT22;34323;52.022;5.686;2023-11-19T09:55:41;18.20;99.90
48535;DHT22;34323;52.022;5.686;2023-11-19T09:58:08;18.30;99.90
48535;DHT22;34323;52.022;5.686;2023-11-19T10:00:34;18.30;99.90
48535;DHT22;34323;52.022;5.686;2023-11-19T10:03:00;18.40;99.90
48535;DHT22;34323;52.022;5.686;2023-11-19T10:05:27;18.20;99.90
48535;DHT22;34323;52.022;5.686;2023-11-19T10:07:53;18.40;99.90
48535;DHT22;34323;52.022;5.686;2023-11-19T10:10:21;18.50;99.90
48535;DHT22;34323;52.022;5.686;2023-11-19T10:12:46;18.20;99.90
48535;DHT22;34323;52.022;5.686;2023-11-19T10:15:20;18.00;99.90
48535;DHT22;34323;52.022;5.686;2023-11-19T10:17:48;18.00;99.90
48535;DHT22;34323;52.022;5.686;2023-11-19T10:20:14;18.00;99.90
48535;DHT22;34323;52.022;5.686;2023-11-19T10:22:39;17.90;99.90
48535;DHT22;34323;52.022;5.686;2023-11-19T10:25:26;17.80;99.90
48535;DHT22;34323;52.022;5.686;2023-11-19T10:27:52;17.80;99.90
48535;DHT22;34323;52.022;5.686;2023-11-19T10:30:23;17.80;99.90
48535;DHT22;34323;52.022;5.686;2023-11-19T10:33:15;17.90;99.90
48535;DHT22;34323;52.022;5.686;2023-11-19T10:35:56;17.90;99.90
48535;DHT22;34323;52.022;5.686;2023-11-19T10:38:23;18.10;99.90
48535;DHT22;34323;52.022;5.686;2023-11-19T10:40:50;18.20;99.90
48535;DHT22;34323;52.022;5.686;2023-11-19T10:43:20;18.30;99.90
48535;DHT22;34323;52.022;5.686;2023-11-19T10:45:48;18.50;99.90
48535;DHT22;34323;52.022;5.686;2023-11-19T10:48:14;18.80;99.90
48535;DHT22;34323;52.022;5.686;2023-11-19T10:50:42;19.00;99.90
48535;DHT22;34323;52.022;5.686;2023-11-19T10:53:09;18.90;99.90
48535;DHT22;34323;52.022;5.686;2023-11-19T10:55:38;19.10;99.90
48535;DHT22;34323;52.022;5.686;2023-11-19T10:58:06;19.40;99.90
48535;DHT22;34323;52.022;5.686;2023-11-19T11:00:47;19.60;99.90
48535;DHT22;34323;52.022;5.686;2023-11-19T11:03:25;19.40;99.90
48535;DHT22;34323;52.022;5.686;2023-11-19T11:05:53;19.50;99.90
48535;DHT22;34323;52.022;5.686;2023-11-19T11:08:20;19.50;99.90
48535;DHT22;34323;52.022;5.686;2023-11-19T11:10:54;19.30;99.90
48535;DHT22;34323;52.022;5.686;2023-11-19T11:13:22;19.80;99.90
48535;DHT22;34323;52.022;5.686;2023-11-19T11:15:50;20.30;99.90
48535;DHT22;34323;52.022;5.686;2023-11-19T11:18:16;20.50;99.90
48535;DHT22;34323;52.022;5.686;2023-11-19T11:20:44;20.50;99.90
48535;DHT22;34323;52.022;5.686;2023-11-19T11:32:16;20.30;99.90
48535;DHT22;34323;52.022;5.686;2023-11-19T11:34:44;19.90;99.90
48535;DHT22;34323;52.022;5.686;2023-11-19T11:37:25;19.40;99.90
48535;DHT22;34323;52.022;5.686;2023-11-19T11:39:52;19.30;99.90
48535;DHT22;34323;52.022;5.686;2023-11-19T11:50:23;18.90;99.90
48535;DHT22;34323;52.022;5.686;2023-11-19T11:57:50;18.80;99.90
48535;DHT22;34323;52.022;5.686;2023-11-19T12:00:27;18.80;99.90
48535;DHT22;34323;52.022;5.686;2023-11-19T12:03:02;18.70;99.90
48535;DHT22;34323;52.022;5.686;2023-11-19T12:05:28;18.80;99.90
48535;DHT22;34323;52.022;5.686;2023-11-19T12:07:55;18.90;99.90
48535;DHT22;34323;52.022;5.686;2023-11-19T12:10:24;18.50;99.90
48535;DHT22;34323;52.022;5.686;2023-11-19T12:12:53;18.30;99.90
48535;DHT22;34323;52.022;5.686;2023-11-19T12:15:20;18.30;99.90
48535;DHT22;34323;52.022;5.686;2023-11-19T12:17:52;18.30;99.90
48535;DHT22;34323;52.022;5.686;2023-11-19T12:20:19;18.40;99.90
48535;DHT22;34323;52.022;5.686;2023-11-19T12:22:47;18.70;99.90
48535;DHT22;34323;52.022;5.686;2023-11-19T12:25:15;18.90;99.90
48535;DHT22;34323;52.022;5.686;2023-11-19T12:27:52;19.10;99.90
48535;DHT22;34323;52.022;5.686;2023-11-19T12:32:48;19.20;99.90
48535;DHT22;34323;52.022;5.686;2023-11-19T12:35:14;19.20;99.90
48535;DHT22;34323;52.022;5.686;2023-11-19T12:37:44;19.20;99.90
48535;DHT22;34323;52.022;5.686;2023-11-19T12:42:41;19.30;99.90
48535;DHT22;34323;52.022;5.686;2023-11-19T12:45:07;19.30;99.90
48535;DHT22;34323;52.022;5.686;2023-11-19T12:47:34;19.10;99.90
48535;DHT22;34323;52.022;5.686;2023-11-19T12:49:59;19.20;99.90
48535;DHT22;34323;52.022;5.686;2023-11-19T12:52:25;19.10;99.90
48535;DHT22;34323;52.022;5.686;2023-11-19T12:54:50;19.10;99.90
48535;DHT22;34323;52.022;5.686;2023-11-19T12:57:17;18.80;99.90
48535;DHT22;34323;52.022;5.686;2023-11-19T12:59:54;19.00;99.90
48535;DHT22;34323;52.022;5.686;2023-11-19T13:02:21;19.20;99.90
48535;DHT22;34323;52.022;5.686;2023-11-19T13:04:47;19.30;99.90
48535;DHT22;34323;52.022;5.686;2023-11-19T13:07:13;19.50;99.90
48535;DHT22;34323;52.022;5.686;2023-11-19T13:09:38;19.70;99.90
48535;DHT22;34323;52.022;5.686;2023-11-19T13:12:14;19.90;99.90
48535;DHT22;34323;52.022;5.686;2023-11-19T13:14:40;19.90;99.90
48535;DHT22;34323;52.022;5.686;2023-11-19T13:17:07;19.90;99.90
48535;DHT22;34323;52.022;5.686;2023-11-19T13:19:34;19.90;99.90
48535;DHT22;34323;52.022;5.686;2023-11-19T13:22:00;19.90;99.90
48535;DHT22;34323;52.022;5.686;2023-11-19T13:24:25;20.00;99.90
48535;DHT22;34323;52.022;5.686;2023-11-19T13:26:51;19.80;99.90
48535;DHT22;34323;52.022;5.686;2023-11-19T13:29:16;19.70;99.90
48535;DHT22;34323;52.022;5.686;2023-11-19T13:31:42;19.40;99.90
48535;DHT22;34323;52.022;5.686;2023-11-19T13:34:08;19.20;99.90
48535;DHT22;34323;52.022;5.686;2023-11-19T13:36:34;19.10;99.90
48535;DHT22;34323;52.022;5.686;2023-11-19T13:39:00;19.10;99.90
48535;DHT22;34323;52.022;5.686;2023-11-19T13:41:26;19.10;99.90
48535;DHT22;34323;52.022;5.686;2023-11-19T13:43:52;19.00;99.90
48535;DHT22;34323;52.022;5.686;2023-11-19T13:46:19;19.20;99.90
48535;DHT22;34323;52.022;5.686;2023-11-19T13:48:45;19.20;99.90
48535;DHT22;34323;52.022;5.686;2023-11-19T13:51:10;18.90;99.90
48535;DHT22;34323;52.022;5.686;2023-11-19T13:53:36;19.00;99.90
48535;DHT22;34323;52.022;5.686;2023-11-19T13:56:03;18.90;99.90
48535;DHT22;34323;52.022;5.686;2023-11-19T13:58:29;18.70;99.90
48535;DHT22;34323;52.022;5.686;2023-11-19T14:00:54;18.60;99.90
48535;DHT22;34323;52.022;5.686;2023-11-19T14:03:20;18.30;99.90
48535;DHT22;34323;52.022;5.686;2023-11-19T14:05:46;18.40;99.90
48535;DHT22;34323;52.022;5.686;2023-11-19T14:08:12;18.40;99.90
48535;DHT22;34323;52.022;5.686;2023-11-19T14:10:39;18.30;99.90
48535;DHT22;34323;52.022;5.686;2023-11-19T14:13:08;18.50;99.90
48535;DHT22;34323;52.022;5.686;2023-11-19T14:15:34;18.60;99.90
48535;DHT22;34323;52.022;5.686;2023-11-19T14:18:01;18.60;99.90
48535;DHT22;34323;52.022;5.686;2023-11-19T14:20:27;18.80;99.90
48535;DHT22;34323;52.022;5.686;2023-11-19T14:22:53;18.80;99.90
48535;DHT22;34323;52.022;5.686;2023-11-19T14:25:19;18.90;99.90
48535;DHT22;34323;52.022;5.686;2023-11-19T14:27:46;19.00;99.90
48535;DHT22;34323;52.022;5.686;2023-11-19T14:30:13;19.10;99.90
48535;DHT22;34323;52.022;5.686;2023-11-19T14:32:41;18.70;99.90
48535;DHT22;34323;52.022;5.686;2023-11-19T14:35:08;18.60;99.90
48535;DHT22;34323;52.022;5.686;2023-11-19T14:37:34;18.60;99.90
48535;DHT22;34323;52.022;5.686;2023-11-19T14:40:00;18.70;99.90
48535;DHT22;34323;52.022;5.686;2023-11-19T14:42:27;18.60;99.90
48535;DHT22;34323;52.022;5.686;2023-11-19T14:44:53;18.60;99.90
48535;DHT22;34323;52.022;5.686;2023-11-19T14:47:22;18.90;99.90
48535;DHT22;34323;52.022;5.686;2023-11-19T14:49:48;18.90;99.90
48535;DHT22;34323;52.022;5.686;2023-11-19T14:52:15;18.70;99.90
48535;DHT22;34323;52.022;5.686;2023-11-19T14:54:41;18.80;99.90
48535;DHT22;34323;52.022;5.686;2023-11-19T14:57:07;18.80;99.90
48535;DHT22;34323;52.022;5.686;2023-11-19T14:59:34;18.80;99.90
48535;DHT22;34323;52.022;5.686;2023-11-19T15:02:00;18.90;99.90
48535;DHT22;34323;52.022;5.686;2023-11-19T15:04:26;19.00;99.90
48535;DHT22;34323;52.022;5.686;2023-11-19T15:06:52;18.90;99.90
48535;DHT22;34323;52.022;5.686;2023-11-19T15:09:18;18.80;99.90
48535;DHT22;34323;52.022;5.686;2023-11-19T15:11:46;18.70;99.90
48535;DHT22;34323;52.022;5.686;2023-11-19T15:14:15;18.60;99.90
48535;DHT22;34323;52.022;5.686;2023-11-19T15:16:44;18.70;99.90
48535;DHT22;34323;52.022;5.686;2023-11-19T15:19:10;18.80;99.90
48535;DHT22;34323;52.022;5.686;2023-11-19T15:21:38;18.80;99.90
48535;DHT22;34323;52.022;5.686;2023-11-19T15:24:04;18.90;99.90
48535;DHT22;34323;52.022;5.686;2023-11-19T15:26:36;18.80;99.90
48535;DHT22;34323;52.022;5.686;2023-11-19T15:29:02;18.60;99.90
48535;DHT22;34323;52.022;5.686;2023-11-19T15:31:29;18.70;99.90
48535;DHT22;34323;52.022;5.686;2023-11-19T15:33:55;18.90;99.90
48535;DHT22;34323;52.022;5.686;2023-11-19T15:36:21;18.70;99.90
48535;DHT22;34323;52.022;5.686;2023-11-19T15:38:47;18.60;99.90
48535;DHT22;34323;52.022;5.686;2023-11-19T15:41:13;18.60;99.90
48535;DHT22;34323;52.022;5.686;2023-11-19T15:43:39;18.50;99.90
48535;DHT22;34323;52.022;5.686;2023-11-19T15:46:08;18.30;99.90
48535;DHT22;34323;52.022;5.686;2023-11-19T15:48:34;18.40;99.90
48535;DHT22;34323;52.022;5.686;2023-11-19T15:51:00;18.40;99.90
48535;DHT22;34323;52.022;5.686;2023-11-19T15:53:28;18.60;99.90
48535;DHT22;34323;52.022;5.686;2023-11-19T15:55:53;18.60;99.90